createdAt,value
2023-03-30T00:00:46.657Z,7.20
2023-03-30T00:05:51.757Z,8.68
2023-03-30T00:11:00.880Z,8.32
2023-03-30T00:16:04.559Z,6.07
2023-03-30T00:21:09.561Z,7.32
2023-03-30T00:26:11.347Z,5.97
2023-03-30T00:31:13.274Z,5.50
2023-03-30T00:36:17.184Z,7.55
2023-03-30T00:41:19.121Z,5.78
2023-03-30T00:46:22.948Z,5.63
2023-03-30T00:51:28.216Z,5.55
2023-03-30T00:56:31.369Z,5.68
2023-03-30T01:01:39.337Z,6.28
2023-03-30T01:06:43.543Z,6.00
2023-03-30T01:11:46.252Z,5.85
2023-03-30T01:17:23.169Z,6.40
2023-03-30T01:22:47.196Z,6.05
2023-03-30T01:28:14.688Z,8.73
2023-03-30T01:33:28.615Z,7.85
2023-03-30T01:38:53.228Z,7.25
2023-03-30T01:44:21.531Z,9.30
2023-03-30T01:49:37.115Z,7.43
2023-03-30T01:54:45.902Z,6.15
2023-03-30T02:00:00.202Z,4.88
2023-03-30T02:05:06.202Z,6.20
2023-03-30T02:10:12.155Z,6.25
2023-03-30T02:15:16.072Z,6.57
2023-03-30T02:20:19.034Z,5.38
2023-03-30T02:25:21.216Z,3.95
2023-03-30T02:30:23.264Z,3.65
2023-03-30T02:35:56.001Z,3.90
2023-03-30T02:41:16.169Z,3.90
2023-03-30T02:46:39.449Z,3.67
2023-03-30T02:52:17.204Z,3.50
2023-03-30T02:57:24.361Z,4.20
2023-03-30T03:02:38.010Z,5.50
2023-03-30T03:07:53.766Z,4.75
2023-03-30T03:12:55.671Z,4.68
2023-03-30T03:17:58.610Z,4.00
2023-03-30T03:23:00.912Z,4.50
2023-03-30T03:28:05.845Z,3.92
2023-03-30T03:33:16.134Z,4.70
2023-03-30T03:38:25.310Z,4.90
2023-03-30T03:43:27.602Z,3.25
2023-03-30T03:48:29.583Z,3.42
2023-03-30T03:53:32.024Z,4.65
2023-03-30T03:58:37.516Z,3.50
2023-03-30T04:03:39.315Z,5.05
2023-03-30T04:08:41.686Z,4.03
2023-03-30T04:13:54.483Z,3.53
2023-03-30T04:19:31.556Z,4.60
2023-03-30T04:24:52.280Z,4.45
2023-03-30T04:30:14.279Z,4.20
2023-03-30T04:35:48.611Z,4.78
2023-03-30T04:41:19.534Z,7.03
2023-03-30T04:46:33.806Z,6.60
2023-03-30T04:52:04.143Z,8.30
2023-03-30T04:57:14.193Z,4.10
2023-03-30T05:02:45.587Z,6.22
2023-03-30T05:07:53.976Z,5.30
2023-03-30T05:13:17.489Z,5.78
2023-03-30T05:18:29.098Z,7.43
2023-03-30T05:23:57.586Z,5.85
2023-03-30T05:29:31.901Z,7.47
2023-03-30T05:34:52.223Z,6.93
2023-03-30T05:40:18.352Z,9.18
2023-03-30T05:45:49.920Z,7.10
2023-03-30T05:51:27.423Z,5.80
2023-03-30T05:56:52.822Z,5.00
2023-03-30T06:02:15.284Z,9.57
2023-03-30T06:07:18.117Z,6.55
2023-03-30T06:12:20.478Z,10.23
2023-03-30T06:17:22.427Z,5.35
2023-03-30T06:22:24.437Z,4.82
2023-03-30T06:27:56.254Z,3.95
2023-03-30T06:32:59.257Z,5.53
2023-03-30T06:38:23.350Z,8.07
2023-03-30T06:43:27.556Z,7.43
2023-03-30T06:48:55.509Z,6.07
2023-03-30T06:54:20.154Z,4.63
2023-03-30T06:59:34.314Z,4.43
2023-03-30T07:05:02.425Z,5.93
2023-03-30T07:10:12.123Z,5.82
2023-03-30T07:15:15.345Z,8.63
2023-03-30T07:20:17.360Z,6.53
2023-03-30T07:25:42.287Z,7.03
2023-03-30T07:30:49.172Z,8.30
2023-03-30T07:35:53.242Z,6.60
2023-03-30T07:40:58.961Z,7.60
2023-03-30T07:46:03.431Z,5.97
2023-03-30T07:51:13.653Z,8.40
2023-03-30T07:56:42.949Z,6.25
2023-03-30T08:01:46.577Z,7.97
2023-03-30T08:07:12.643Z,6.63
2023-03-30T08:12:14.589Z,9.00
2023-03-30T08:17:16.527Z,7.53
2023-03-30T08:22:18.501Z,6.78
2023-03-30T08:27:20.371Z,12.25
2023-03-30T08:32:22.225Z,11.25
2023-03-30T08:37:25.140Z,6.28
2023-03-30T08:42:43.366Z,10.23
2023-03-30T08:47:49.422Z,8.57
2023-03-30T08:52:52.689Z,5.18
2023-03-30T08:58:20.172Z,8.02
2023-03-30T09:03:27.892Z,6.78
2023-03-30T09:08:32.959Z,5.18
2023-03-30T09:13:37.954Z,7.40
2023-03-30T09:18:43.924Z,11.02
2023-03-30T09:23:46.288Z,6.38
2023-03-30T09:29:03.837Z,6.63
2023-03-30T09:34:09.294Z,8.48
2023-03-30T09:39:24.302Z,15.35
2023-03-30T09:44:39.068Z,8.70
2023-03-30T09:49:40.912Z,6.38
2023-03-30T09:54:42.766Z,6.68
2023-03-30T09:59:45.857Z,4.38
2023-03-30T10:04:53.780Z,4.85
2023-03-30T10:09:58.008Z,5.97
2023-03-30T10:15:04.346Z,8.65
2023-03-30T10:20:23.963Z,3.80
2023-03-30T10:25:32.818Z,4.10
2023-03-30T10:30:35.903Z,4.75
2023-03-30T10:35:38.678Z,2.85
2023-03-30T10:40:44.051Z,4.18
2023-03-30T10:45:48.351Z,4.45
2023-03-30T10:51:01.493Z,3.08
2023-03-30T10:56:09.393Z,5.15
2023-03-30T11:01:20.891Z,3.10
2023-03-30T11:06:32.834Z,4.97
2023-03-30T11:11:49.107Z,3.83
2023-03-30T11:17:09.031Z,4.38
2023-03-30T11:22:57.460Z,5.80
2023-03-30T11:28:20.963Z,3.90
2023-03-30T11:33:33.747Z,5.63
2023-03-30T11:38:49.776Z,6.63
2023-03-30T11:43:56.047Z,6.90
2023-03-30T11:49:05.022Z,7.70
2023-03-30T11:54:30.997Z,7.78
2023-03-30T12:00:14.697Z,8.07
2023-03-30T12:05:30.970Z,8.10
2023-03-30T12:10:32.775Z,9.82
2023-03-30T12:15:49.071Z,9.98
2023-03-30T12:20:54.168Z,11.80
2023-03-30T12:26:14.588Z,12.98
2023-03-30T12:31:16.599Z,13.32
2023-03-30T12:36:38.126Z,13.43
2023-03-30T12:41:48.860Z,13.07
2023-03-30T12:47:12.213Z,14.13
2023-03-30T12:52:23.676Z,12.90
2023-03-30T12:57:50.087Z,12.07
2023-03-30T13:03:16.150Z,10.48
2023-03-30T13:08:35.916Z,9.48
2023-03-30T13:13:57.559Z,9.80
2023-03-30T13:19:14.813Z,9.90
2023-03-30T13:24:35.992Z,11.35
2023-03-30T13:29:38.033Z,12.05
2023-03-30T13:35:06.971Z,11.25
2023-03-30T13:40:21.821Z,11.68
2023-03-30T13:45:46.712Z,9.82
2023-03-30T13:50:56.223Z,11.25
2023-03-30T13:55:58.167Z,9.60
2023-03-30T14:01:08.394Z,9.32
2023-03-30T14:06:13.583Z,10.02
2023-03-30T14:11:21.877Z,9.40
2023-03-30T14:16:28.903Z,9.95
2023-03-30T14:21:33.372Z,9.77
2023-03-30T14:26:41.110Z,9.90
2023-03-30T14:31:51.047Z,9.30
2023-03-30T14:37:07.782Z,9.63
2023-03-30T14:42:16.837Z,9.93
2023-03-30T14:47:24.459Z,10.48
2023-03-30T14:52:42.010Z,10.68
2023-03-30T14:57:44.298Z,10.77
2023-03-30T15:02:56.874Z,11.05
2023-03-30T15:07:58.984Z,8.48
2023-03-30T15:13:02.686Z,6.18
2023-03-30T15:18:05.365Z,2.65
2023-03-30T15:23:11.799Z,1.80
2023-03-30T15:28:19.485Z,1.77
2023-03-30T15:33:36.392Z,2.08
2023-03-30T15:38:49.037Z,1.58
2023-03-30T15:44:24.691Z,1.33
2023-03-30T15:49:49.288Z,1.50
2023-03-30T15:54:55.653Z,1.70
2023-03-30T16:00:01.927Z,2.20
2023-03-30T16:05:16.424Z,3.25
2023-03-30T16:10:21.554Z,1.95
2023-03-30T16:15:26.175Z,1.60
2023-03-30T16:20:30.540Z,1.98
2023-03-30T16:25:44.024Z,1.63
2023-03-30T16:30:48.914Z,1.80
2023-03-30T16:35:50.727Z,3.33
2023-03-30T16:40:56.353Z,2.47
2023-03-30T16:45:58.352Z,1.85
2023-03-30T16:51:00.369Z,1.50
2023-03-30T16:56:02.443Z,1.70
2023-03-30T17:01:04.771Z,2.67
2023-03-30T17:06:07.620Z,1.50
2023-03-30T17:11:13.514Z,2.20
2023-03-30T17:16:15.881Z,2.97
2023-03-30T17:21:17.750Z,2.17
2023-03-30T17:26:20.084Z,2.70
2023-03-30T17:31:22.747Z,1.83
2023-03-30T17:36:26.621Z,2.38
2023-03-30T17:41:28.840Z,2.90
2023-03-30T17:46:32.522Z,2.30
2023-03-30T17:51:34.389Z,2.10
2023-03-30T17:56:36.248Z,2.13
2023-03-30T18:01:39.197Z,2.20
2023-03-30T18:06:41.763Z,2.55
2023-03-30T18:11:44.362Z,1.77
2023-03-30T18:16:46.259Z,3.97
2023-03-30T18:21:48.060Z,4.00
2023-03-30T18:26:49.884Z,3.42
2023-03-30T18:31:51.716Z,3.33
2023-03-30T18:36:53.510Z,4.18
2023-03-30T18:41:55.383Z,4.30
2023-03-30T18:46:57.162Z,2.90
2023-03-30T18:51:58.942Z,3.25
2023-03-30T18:57:00.807Z,5.10
2023-03-30T19:02:02.887Z,4.18
2023-03-30T19:07:05.728Z,3.75
2023-03-30T19:12:10.112Z,5.90
2023-03-30T19:17:12.034Z,3.95
2023-03-30T19:22:14.076Z,3.30
2023-03-30T19:27:15.886Z,3.47
2023-03-30T19:32:19.651Z,5.00
2023-03-30T19:37:21.756Z,3.63
2023-03-30T19:42:23.638Z,3.17
2023-03-30T19:47:28.889Z,2.60
2023-03-30T19:52:31.467Z,6.03
2023-03-30T19:57:33.362Z,3.38
2023-03-30T20:02:35.387Z,2.50
2023-03-30T20:07:37.763Z,2.80
2023-03-30T20:12:39.797Z,4.70
2023-03-30T20:17:42.132Z,3.85
2023-03-30T20:22:44.618Z,2.78
2023-03-30T20:27:46.842Z,3.28
2023-03-30T20:33:03.772Z,2.25
2023-03-30T20:38:08.559Z,2.85
2023-03-30T20:43:10.736Z,3.25
2023-03-30T20:48:32.825Z,2.40
2023-03-30T20:53:35.803Z,3.13
2023-03-30T20:58:38.889Z,2.50
2023-03-30T21:03:44.300Z,3.85
2023-03-30T21:08:46.138Z,2.45
2023-03-30T21:13:47.920Z,3.42
2023-03-30T21:18:50.564Z,2.90
2023-03-30T21:23:52.423Z,2.40
2023-03-30T21:28:54.245Z,2.53
2023-03-30T21:33:56.247Z,2.45
2023-03-30T21:38:59.477Z,2.55
2023-03-30T21:44:01.437Z,6.05
2023-03-30T21:49:03.415Z,4.18
2023-03-30T21:54:05.727Z,2.70
2023-03-30T21:59:07.977Z,2.50
2023-03-30T22:04:09.884Z,3.85
2023-03-30T22:09:13.908Z,2.70
2023-03-30T22:14:15.771Z,3.42
2023-03-30T22:19:19.045Z,3.92
2023-03-30T22:24:20.910Z,5.25
2023-03-30T22:29:23.345Z,2.28
2023-03-30T22:34:25.746Z,3.72
2023-03-30T22:39:28.069Z,2.95
2023-03-30T22:44:29.892Z,2.30
2023-03-30T22:49:31.675Z,3.90
2023-03-30T22:54:33.785Z,2.50
2023-03-30T22:59:35.738Z,3.45
2023-03-30T23:04:39.908Z,3.38
2023-03-30T23:09:47.522Z,3.15
2023-03-30T23:14:49.360Z,7.60
2023-03-30T23:19:55.744Z,4.00
2023-03-30T23:24:57.569Z,5.28
2023-03-30T23:29:59.454Z,4.65
2023-03-30T23:35:02.237Z,3.92
2023-03-30T23:40:07.583Z,4.35
2023-03-30T23:45:09.811Z,3.50
2023-03-30T23:50:11.664Z,8.10
2023-03-30T23:55:13.748Z,3.40
